Time;durP1;ratioP1;P1;durP2;ratioP2;P2;SDS_P1;SDS_P2;PMS_P1;PMS_P2;Temp;Humidity;BMP_temperature;BMP_pressure;BME280_temperature;BME280_humidity;BME280_pressure;Samples;Min_cycle;Max_cycle;Signal;HPM_P1;HPM_P2
2022/05/28 00:00:35;;;;;;;4.90;3.80;;;14.30;99.90;;;;;;5067248;28;21014;-69
2022/05/28 00:03:03;;;;;;;8.30;4.23;;;14.30;99.90;;;;;;5067845;28;20486;-69
2022/05/28 00:05:30;;;;;;;8.23;3.63;;;14.30;99.90;;;;;;5067083;28;20478;-68
2022/05/28 00:07:57;;;;;;;7.73;4.50;;;14.20;99.90;;;;;;5067820;28;20453;-69
2022/05/28 00:10:24;;;;;;;9.60;3.43;;;14.30;99.90;;;;;;5066660;28;20485;-68
2022/05/28 00:12:54;;;;;;;5.30;4.20;;;14.30;99.90;;;;;;5068140;28;20546;-68
2022/05/28 00:15:23;;;;;;;11.00;3.93;;;14.30;99.90;;;;;;5067004;28;20837;-69
2022/05/28 00:17:50;;;;;;;8.70;4.03;;;14.40;99.90;;;;;;5067968;28;20443;-69
2022/05/28 00:20:17;;;;;;;9.90;3.47;;;14.30;99.90;;;;;;5066565;28;20501;-69
2022/05/28 00:22:45;;;;;;;9.43;3.97;;;14.30;99.90;;;;;;5068140;28;20447;-68
2022/05/28 00:25:13;;;;;;;6.33;3.70;;;14.20;99.90;;;;;;5066938;28;20479;-69
2022/05/28 00:27:41;;;;;;;6.47;4.33;;;14.20;99.90;;;;;;5067815;28;20565;-68
2022/05/28 00:30:11;;;;;;;6.60;3.30;;;14.30;99.90;;;;;;5066064;28;21003;-67
2022/05/28 00:32:38;;;;;;;7.60;4.03;;;14.40;99.90;;;;;;5068159;28;20562;-68
2022/05/28 00:35:07;;;;;;;5.50;4.27;;;14.40;99.90;;;;;;5067238;28;20538;-69
2022/05/28 00:37:34;;;;;;;5.03;3.63;;;14.40;99.90;;;;;;5067664;28;20451;-68
2022/05/28 00:40:01;;;;;;;6.70;3.20;;;14.40;99.90;;;;;;5066899;28;20513;-68
2022/05/28 00:42:29;;;;;;;7.47;4.13;;;14.40;99.90;;;;;;5067081;28;20451;-68
2022/05/28 00:44:56;;;;;;;9.10;5.50;;;14.20;99.90;;;;;;5067542;28;20861;-68
2022/05/28 00:47:24;;;;;;;7.00;4.40;;;14.00;99.90;;;;;;5067276;28;20446;-68
2022/05/28 00:49:52;;;;;;;8.70;4.23;;;13.80;99.90;;;;;;5066991;28;21183;-68
2022/05/28 00:52:22;;;;;;;10.53;4.10;;;13.80;99.90;;;;;;5070497;28;20488;-68
2022/05/28 00:54:49;;;;;;;8.03;4.67;;;13.70;99.90;;;;;;5071432;28;20451;-69
2022/05/28 00:57:18;;;;;;;6.00;4.30;;;13.70;99.90;;;;;;5070809;28;20449;-68
2022/05/28 00:59:45;;;;;;;5.20;3.30;;;13.80;99.90;;;;;;5071300;28;20870;-68
2022/05/28 01:02:19;;;;;;;5.80;4.03;;;13.80;99.90;;;;;;5070538;28;20469;-68
2022/05/28 01:04:58;;;;;;;7.97;5.77;;;13.80;99.90;;;;;;5071165;28;20503;-69
2022/05/28 01:07:35;;;;;;;7.40;3.97;;;13.90;99.90;;;;;;5070633;28;20568;-68
2022/05/28 01:10:11;;;;;;;5.47;3.63;;;13.90;99.90;;;;;;5070884;28;20466;-69
2022/05/28 01:12:44;;;;;;;7.77;4.30;;;13.90;99.90;;;;;;5071233;28;20976;-69
2022/05/28 01:15:16;;;;;;;8.30;3.90;;;13.80;99.90;;;;;;5070770;28;20451;-68
2022/05/28 01:17:48;;;;;;;7.63;4.37;;;13.80;99.90;;;;;;5071238;28;20446;-69
2022/05/28 01:20:21;;;;;;;10.60;5.10;;;13.80;99.90;;;;;;5069605;28;20506;-69
2022/05/28 01:23:13;;;;;;;6.73;4.03;;;13.70;99.90;;;;;;5071376;28;20473;-69
2022/05/28 01:25:53;;;;;;;6.53;3.80;;;13.70;99.90;;;;;;5070767;28;20487;-68
2022/05/28 01:28:25;;;;;;;7.03;3.90;;;13.60;99.90;;;;;;5070635;28;20549;-69
2022/05/28 01:30:57;;;;;;;10.00;4.17;;;13.60;99.90;;;;;;5070023;28;21306;-69
2022/05/28 01:33:24;;;;;;;7.37;4.23;;;13.60;99.90;;;;;;5070824;28;20447;-68
2022/05/28 01:35:52;;;;;;;5.90;4.17;;;13.50;99.90;;;;;;5070319;28;20446;-69
2022/05/28 01:38:20;;;;;;;6.80;3.73;;;13.50;99.90;;;;;;5070320;28;20948;-69
2022/05/28 01:40:47;;;;;;;6.37;3.77;;;13.50;99.90;;;;;;5069948;28;20555;-68
2022/05/28 01:43:18;;;;;;;12.20;4.23;;;13.50;99.90;;;;;;5070126;28;20450;-68
2022/05/28 01:45:48;;;;;;;6.50;3.57;;;13.40;99.90;;;;;;5070562;28;20491;-68
2022/05/28 01:48:17;;;;;;;9.00;3.73;;;13.40;99.90;;;;;;5070515;28;20450;-69
2022/05/28 01:50:46;;;;;;;6.10;3.37;;;13.50;99.90;;;;;;5069788;28;20470;-68
2022/05/28 01:54:07;;;;;;;9.37;3.90;;;13.40;99.90;;;;;;5070314;28;20879;-69
2022/05/28 01:56:06;;;;;;;6.30;3.50;;;13.50;99.90;;;;;;5069850;28;20577;-69
2022/05/28 01:58:33;;;;;;;7.23;3.83;;;13.50;99.90;;;;;;5070405;28;20451;-70
2022/05/28 02:01:04;;;;;;;7.80;3.50;;;13.50;99.90;;;;;;5069357;28;20481;-68
2022/05/28 02:03:33;;;;;;;7.83;3.80;;;13.50;99.90;;;;;;5068750;28;20469;-68
2022/05/28 02:06:00;;;;;;;8.93;3.67;;;13.40;99.90;;;;;;5069483;28;20566;-68
2022/05/28 02:08:30;;;;;;;7.67;3.20;;;13.20;99.90;;;;;;5070096;28;20447;-68
2022/05/28 02:11:09;;;;;;;8.63;3.83;;;13.20;99.90;;;;;;5069753;28;20467;-69
2022/05/28 02:13:48;;;;;;;12.70;3.67;;;13.10;99.90;;;;;;5070603;28;20461;-69
2022/05/28 02:16:22;;;;;;;6.47;3.20;;;13.10;99.90;;;;;;5069291;28;21121;-68
2022/05/28 02:18:53;;;;;;;6.60;3.20;;;13.00;99.90;;;;;;5070805;28;20466;-68
2022/05/28 02:21:27;;;;;;;8.97;3.77;;;13.00;99.90;;;;;;5069093;28;20469;-68
2022/05/28 02:23:59;;;;;;;6.83;3.17;;;12.90;99.90;;;;;;5070225;28;20949;-68
2022/05/28 02:26:31;;;;;;;8.00;3.37;;;12.80;99.90;;;;;;5069334;28;20485;-68
2022/05/28 02:29:00;;;;;;;8.07;3.10;;;12.70;99.90;;;;;;5070254;28;20443;-68
2022/05/28 02:31:33;;;;;;;11.40;4.00;;;12.60;99.90;;;;;;5068803;28;20471;-68
2022/05/28 02:34:00;;;;;;;6.73;2.97;;;12.60;99.90;;;;;;5069992;28;20459;-67
2022/05/28 02:36:28;;;;;;;7.33;2.67;;;12.50;99.90;;;;;;5069020;28;20504;-68
2022/05/28 02:38:55;;;;;;;6.07;3.03;;;12.50;99.90;;;;;;5070294;28;20447;-68
2022/05/28 02:41:23;;;;;;;17.07;3.40;;;12.60;99.90;;;;;;5068090;28;20559;-69
2022/05/28 02:43:50;;;;;;;10.13;3.20;;;12.50;99.90;;;;;;5069653;28;20937;-68
2022/05/28 02:46:17;;;;;;;13.07;3.03;;;12.50;99.90;;;;;;5068872;28;20495;-67
2022/05/28 02:48:45;;;;;;;9.90;3.40;;;12.40;99.90;;;;;;5069583;28;20463;-68
2022/05/28 02:51:14;;;;;;;11.73;3.63;;;12.30;99.90;;;;;;5068295;28;20516;-68
2022/05/28 02:53:42;;;;;;;8.97;3.03;;;12.30;99.90;;;;;;5069003;28;20815;-68
2022/05/28 02:56:10;;;;;;;6.87;2.67;;;12.20;99.90;;;;;;5068673;28;20483;-68
2022/05/28 02:58:37;;;;;;;6.33;3.40;;;12.20;99.90;;;;;;5069304;28;20447;-69
2022/05/28 03:01:17;;;;;;;11.97;4.20;;;12.00;99.90;;;;;;5068477;28;20486;-68
2022/05/28 03:03:45;;;;;;;5.67;2.57;;;12.00;99.90;;;;;;5064232;28;20470;-67
2022/05/28 03:06:14;;;;;;;7.10;2.80;;;11.90;99.90;;;;;;5068695;28;20479;-66
2022/05/28 03:08:41;;;;;;;9.17;3.00;;;11.80;99.90;;;;;;5069112;28;20542;-67
2022/05/28 03:11:08;;;;;;;6.93;3.40;;;11.70;99.90;;;;;;5068155;28;20473;-67
2022/05/28 03:13:35;;;;;;;9.13;3.77;;;11.60;99.90;;;;;;5068629;28;20443;-68
2022/05/28 03:16:03;;;;;;;8.53;3.13;;;11.50;99.90;;;;;;5070393;28;20443;-68
2022/05/28 03:18:30;;;;;;;9.43;3.50;;;11.50;99.90;;;;;;5070585;28;20930;-68
2022/05/28 03:20:58;;;;;;;7.13;2.93;;;11.40;99.90;;;;;;5069884;28;20546;-68
2022/05/28 03:23:25;;;;;;;10.87;4.30;;;11.40;99.90;;;;;;5070577;28;20454;-66
2022/05/28 03:25:51;;;;;;;6.97;3.37;;;11.30;99.90;;;;;;5070330;28;20478;-68
2022/05/28 03:28:18;;;;;;;7.67;4.63;;;11.40;99.90;;;;;;5070347;28;20451;-68
2022/05/28 03:30:45;;;;;;;9.77;3.17;;;11.30;99.90;;;;;;5069670;28;20486;-67
2022/05/28 03:33:12;;;;;;;7.10;3.10;;;11.10;99.90;;;;;;5070424;28;20450;-67
2022/05/28 03:35:40;;;;;;;10.27;2.97;;;10.90;99.90;;;;;;5070066;28;21059;-67
2022/05/28 03:38:08;;;;;;;7.63;2.30;;;10.80;99.90;;;;;;5070341;28;20451;-67
2022/05/28 03:40:36;;;;;;;7.87;2.97;;;10.80;99.90;;;;;;5069451;28;20867;-67
2022/05/28 03:43:03;;;;;;;7.70;2.90;;;10.70;99.90;;;;;;5070132;28;20933;-68
2022/05/28 03:45:29;;;;;;;13.77;3.57;;;10.70;99.90;;;;;;5069685;28;20815;-67
2022/05/28 03:47:57;;;;;;;7.50;2.67;;;10.70;99.90;;;;;;5070169;28;20534;-68
2022/05/28 03:50:23;;;;;;;8.93;2.70;;;10.70;99.90;;;;;;5069360;28;20471;-67
2022/05/28 03:52:50;;;;;;;9.33;3.50;;;10.60;99.90;;;;;;5071455;28;20525;-68
2022/05/28 03:55:19;;;;;;;10.03;5.00;;;10.50;99.90;;;;;;5070925;28;20525;-67
2022/05/28 03:57:46;;;;;;;6.20;2.50;;;10.50;99.90;;;;;;5066547;28;20439;-68
2022/05/28 04:00:15;;;;;;;14.10;3.30;;;10.50;99.90;;;;;;5068926;28;20471;-66
2022/05/28 04:02:42;;;;;;;11.13;4.77;;;10.40;99.90;;;;;;5069923;28;20443;-68
2022/05/28 04:05:09;;;;;;;11.30;2.83;;;10.30;99.90;;;;;;5067860;28;20439;-67
2022/05/28 04:07:36;;;;;;;9.97;3.33;;;10.20;99.90;;;;;;5069648;28;20482;-67
2022/05/28 04:10:04;;;;;;;7.60;3.37;;;10.20;99.90;;;;;;5068563;28;21075;-67
2022/05/28 04:12:33;;;;;;;7.10;2.60;;;10.30;99.90;;;;;;5069751;28;20443;-67
2022/05/28 04:15:00;;;;;;;8.23;2.73;;;10.30;99.90;;;;;;5069384;28;20451;-66
2022/05/28 04:17:27;;;;;;;4.67;2.10;;;10.30;99.90;;;;;;5069437;28;20443;-68
2022/05/28 04:19:54;;;;;;;9.53;2.77;;;10.30;99.90;;;;;;5068928;28;20463;-67
2022/05/28 04:22:20;;;;;;;5.90;2.50;;;10.40;99.90;;;;;;5069269;28;20442;-68
2022/05/28 04:24:47;;;;;;;8.40;2.30;;;10.40;99.90;;;;;;5068979;28;21031;-68
2022/05/28 04:27:14;;;;;;;7.30;2.57;;;10.40;99.90;;;;;;5069313;28;20621;-67
2022/05/28 04:29:42;;;;;;;11.07;2.40;;;10.50;99.90;;;;;;5069553;28;20469;-68
2022/05/28 04:32:10;;;;;;;6.23;2.00;;;10.60;99.90;;;;;;5069138;28;20479;-68
2022/05/28 04:34:37;;;;;;;13.60;2.93;;;10.60;99.90;;;;;;5069206;28;20450;-67
2022/05/28 04:37:04;;;;;;;17.50;3.37;;;10.70;99.90;;;;;;5069468;28;20533;-67
2022/05/28 04:39:31;;;;;;;11.50;2.50;;;10.70;99.90;;;;;;5069780;28;20546;-66
2022/05/28 04:41:58;;;;;;;8.70;2.33;;;10.70;99.90;;;;;;5068726;28;20975;-67
2022/05/28 04:44:24;;;;;;;7.40;2.40;;;10.70;99.90;;;;;;5069176;28;20451;-67
2022/05/28 04:46:52;;;;;;;7.73;2.77;;;10.70;99.90;;;;;;5069560;28;20475;-67
2022/05/28 04:49:19;;;;;;;6.80;2.43;;;10.70;99.90;;;;;;5069228;28;20546;-67
2022/05/28 04:51:46;;;;;;;8.83;3.40;;;10.70;99.90;;;;;;5068573;28;20525;-68
2022/05/28 04:54:13;;;;;;;8.20;2.67;;;10.80;99.90;;;;;;5069224;28;20945;-66
2022/05/28 04:56:40;;;;;;;8.00;2.50;;;10.90;99.90;;;;;;5069578;28;20453;-68
2022/05/28 04:59:06;;;;;;;6.43;2.40;;;11.00;99.90;;;;;;5069450;28;20462;-67
2022/05/28 05:01:36;;;;;;;7.13;3.30;;;11.10;99.90;;;;;;5068754;28;20457;-67
2022/05/28 05:04:04;;;;;;;8.70;2.80;;;11.20;99.90;;;;;;5069335;28;20454;-67
2022/05/28 05:06:31;;;;;;;8.20;3.30;;;11.30;99.90;;;;;;5069228;28;20483;-67
2022/05/28 05:08:58;;;;;;;10.17;2.60;;;11.30;99.90;;;;;;5069610;28;20474;-68
2022/05/28 05:11:25;;;;;;;8.83;3.40;;;11.40;99.90;;;;;;5068236;28;20477;-67
2022/05/28 05:13:52;;;;;;;8.20;3.13;;;11.50;99.90;;;;;;5069382;28;20455;-67
2022/05/28 05:16:19;;;;;;;12.73;2.50;;;11.60;99.90;;;;;;5068730;28;20449;-68
2022/05/28 05:18:46;;;;;;;6.83;2.50;;;11.70;99.90;;;;;;5069179;28;20449;-67
2022/05/28 05:21:15;;;;;;;8.13;2.93;;;11.70;99.90;;;;;;5068047;28;20559;-67
2022/05/28 05:23:42;;;;;;;4.87;2.60;;;11.80;99.90;;;;;;5069257;28;20457;-67
2022/05/28 05:26:10;;;;;;;6.60;3.00;;;11.80;99.90;;;;;;5068361;28;20447;-67
2022/05/28 05:28:37;;;;;;;6.50;2.70;;;11.80;99.90;;;;;;5068930;28;20546;-68
2022/05/28 05:31:04;;;;;;;7.83;2.80;;;11.80;99.90;;;;;;5067792;28;20469;-67
2022/05/28 05:33:31;;;;;;;6.80;2.60;;;11.90;99.90;;;;;;5069189;28;20913;-67
2022/05/28 05:35:57;;;;;;;5.13;2.27;;;11.90;99.90;;;;;;5068459;28;20956;-67
2022/05/28 05:38:26;;;;;;;11.50;3.50;;;12.00;99.90;;;;;;5072425;28;20526;-67
2022/05/28 05:40:53;;;;;;;8.50;3.73;;;12.10;99.90;;;;;;5071558;28;21006;-67
2022/05/28 05:43:20;;;;;;;8.70;2.63;;;12.20;99.90;;;;;;5072506;28;20556;-67
2022/05/28 05:45:52;;;;;;;6.50;2.50;;;12.20;99.90;;;;;;5072157;28;20538;-68
2022/05/28 05:48:19;;;;;;;8.47;3.17;;;12.20;99.90;;;;;;5072255;28;21016;-67
2022/05/28 05:50:46;;;;;;;8.17;2.90;;;12.20;99.90;;;;;;5071611;28;20471;-67
2022/05/28 05:53:13;;;;;;;8.13;2.67;;;12.20;99.90;;;;;;5072303;28;20451;-67
2022/05/28 05:55:42;;;;;;;7.17;2.37;;;12.30;99.90;;;;;;5072167;28;20448;-67
2022/05/28 05:58:09;;;;;;;5.00;2.83;;;12.30;99.90;;;;;;5071911;28;20940;-67
2022/05/28 06:00:36;;;;;;;7.77;2.57;;;12.30;99.90;;;;;;5071403;28;20462;-68
2022/05/28 06:03:03;;;;;;;6.00;2.07;;;12.40;99.90;;;;;;5072241;28;20439;-66
2022/05/28 06:05:30;;;;;;;7.63;2.67;;;12.40;99.90;;;;;;5071738;28;20482;-67
2022/05/28 06:07:57;;;;;;;9.20;3.40;;;12.40;99.90;;;;;;5072009;28;20914;-67
2022/05/28 06:10:24;;;;;;;9.70;3.10;;;12.50;99.90;;;;;;5071138;28;20463;-67
2022/05/28 06:12:52;;;;;;;5.67;2.10;;;12.50;99.90;;;;;;5071770;28;20984;-68
2022/05/28 06:15:19;;;;;;;8.43;2.50;;;12.50;99.90;;;;;;5071849;28;21134;-67
2022/05/28 06:17:48;;;;;;;6.50;2.50;;;12.50;99.90;;;;;;5072030;28;20440;-68
2022/05/28 06:20:15;;;;;;;7.87;2.30;;;12.60;99.90;;;;;;5070849;28;20546;-67
2022/05/28 06:22:42;;;;;;;6.20;1.90;;;12.60;99.90;;;;;;5071950;28;20447;-68
2022/05/28 06:25:09;;;;;;;6.20;2.07;;;12.70;99.90;;;;;;5071523;28;20495;-67
2022/05/28 06:27:36;;;;;;;6.27;2.00;;;12.70;99.90;;;;;;5071676;28;20470;-67
2022/05/28 06:30:06;;;;;;;5.47;1.80;;;12.80;99.90;;;;;;5070655;28;21032;-68
2022/05/28 06:32:33;;;;;;;9.30;2.47;;;12.80;99.90;;;;;;5072871;28;20457;-67
2022/05/28 06:35:00;;;;;;;5.70;1.60;;;12.90;99.90;;;;;;5071025;28;20952;-67
2022/05/28 06:37:26;;;;;;;5.37;1.67;;;13.00;99.90;;;;;;5071811;28;20465;-67
2022/05/28 06:39:53;;;;;;;4.93;1.80;;;13.00;99.90;;;;;;5070427;28;20497;-67
2022/05/28 06:42:20;;;;;;;7.37;1.70;;;13.00;99.90;;;;;;5071589;28;20534;-67
2022/05/28 06:44:47;;;;;;;3.70;1.87;;;13.00;99.90;;;;;;5070885;28;20494;-67
2022/05/28 06:47:16;;;;;;;4.83;1.93;;;13.00;99.90;;;;;;5071141;28;21000;-67
2022/05/28 06:49:43;;;;;;;6.17;2.00;;;13.10;99.90;;;;;;5070190;28;20467;-68
2022/05/28 06:52:29;;;;;;;4.17;2.30;;;13.10;99.90;;;;;;5071023;28;20451;-67
2022/05/28 06:54:56;;;;;;;5.30;1.60;;;13.10;99.90;;;;;;5071047;28;20554;-67
2022/05/28 06:57:23;;;;;;;5.93;2.20;;;13.10;99.90;;;;;;5070576;28;20449;-68
2022/05/28 06:59:50;;;;;;;5.63;1.80;;;13.30;99.90;;;;;;5069982;28;20984;-66
2022/05/28 07:02:18;;;;;;;10.23;2.00;;;13.40;99.90;;;;;;5070403;28;20784;-66
2022/05/28 07:04:45;;;;;;;4.70;2.10;;;13.50;99.90;;;;;;5070471;28;20461;-66
2022/05/28 07:07:12;;;;;;;4.10;2.10;;;13.40;99.90;;;;;;5070643;28;20486;-66
2022/05/28 07:09:39;;;;;;;4.10;1.93;;;13.50;99.90;;;;;;5070971;28;20477;-66
2022/05/28 07:12:06;;;;;;;7.77;2.30;;;13.50;99.90;;;;;;5069942;28;20453;-66
2022/05/28 07:14:33;;;;;;;7.70;2.57;;;13.40;99.90;;;;;;5070485;28;20443;-66
2022/05/28 07:17:00;;;;;;;6.47;2.63;;;13.50;99.90;;;;;;5070535;28;20453;-65
2022/05/28 07:19:29;;;;;;;5.17;1.70;;;13.60;99.90;;;;;;5070548;28;20447;-67
2022/05/28 07:21:56;;;;;;;8.60;2.10;;;13.70;99.90;;;;;;5069816;28;20455;-66
2022/05/28 07:24:23;;;;;;;4.60;2.00;;;13.80;99.90;;;;;;5070395;28;20526;-65
2022/05/28 07:26:51;;;;;;;4.30;1.60;;;13.90;99.90;;;;;;5070347;28;20455;-65
2022/05/28 07:29:18;;;;;;;4.73;1.70;;;13.90;99.90;;;;;;5070487;28;20447;-65
2022/05/28 07:31:45;;;;;;;11.07;1.97;;;14.00;99.90;;;;;;5069707;28;20978;-65
2022/05/28 07:34:13;;;;;;;5.40;1.53;;;14.10;99.90;;;;;;5068613;28;20471;-64
2022/05/28 07:36:41;;;;;;;4.10;1.50;;;14.30;99.90;;;;;;5069758;28;20443;-65
2022/05/28 07:39:08;;;;;;;5.23;2.03;;;14.30;99.90;;;;;;5070326;28;20445;-65
2022/05/28 07:41:35;;;;;;;6.43;2.00;;;14.40;99.90;;;;;;5069434;28;20453;-65
2022/05/28 07:44:02;;;;;;;4.23;1.60;;;14.30;99.90;;;;;;5070309;28;20462;-65
2022/05/28 07:46:31;;;;;;;6.13;2.20;;;14.40;99.90;;;;;;5070018;28;20446;-65
2022/05/28 07:49:00;;;;;;;6.43;1.70;;;14.50;99.90;;;;;;5069948;28;20573;-66
2022/05/28 07:51:26;;;;;;;5.00;1.70;;;14.60;99.80;;;;;;5069605;28;20571;-66
2022/05/28 07:53:55;;;;;;;5.23;1.70;;;14.70;99.10;;;;;;5070402;28;20475;-71
2022/05/28 07:56:22;;;;;;;4.07;2.03;;;14.70;98.50;;;;;;5069002;28;20447;-66
2022/05/28 07:58:50;;;;;;;5.23;1.50;;;14.80;98.80;;;;;;5069594;28;20447;-67
2022/05/28 08:01:22;;;;;;;5.95;1.83;;;14.90;99.00;;;;;;5069164;28;20532;-68
2022/05/28 08:03:49;;;;;;;6.57;1.60;;;15.10;99.10;;;;;;5069960;28;20723;-65
2022/05/28 08:06:17;;;;;;;6.07;1.63;;;15.30;98.60;;;;;;5069529;28;20533;-67
2022/05/28 08:08:44;;;;;;;5.00;1.90;;;15.70;98.60;;;;;;5069931;28;20479;-67
2022/05/28 08:11:12;;;;;;;5.80;1.87;;;16.20;97.90;;;;;;5068971;28;20932;-66
2022/05/28 08:13:39;;;;;;;5.50;1.73;;;16.40;97.80;;;;;;5069846;28;20865;-67
2022/05/28 08:16:07;;;;;;;8.37;2.00;;;16.30;97.30;;;;;;5069365;28;20451;-66
2022/05/28 08:18:36;;;;;;;6.80;1.67;;;16.00;97.80;;;;;;5069764;28;20822;-67
2022/05/28 08:23:49;;;;;;;5.70;2.53;;;15.40;98.10;;;;;;5066108;28;20434;-69
2022/05/28 08:26:19;;;;;;;5.50;2.00;;;15.10;99.00;;;;;;5058435;28;20455;-67
2022/05/28 08:28:47;;;;;;;4.70;1.40;;;15.00;99.30;;;;;;5057357;28;20479;-67
2022/05/28 08:31:14;;;;;;;4.70;1.70;;;15.10;99.10;;;;;;5059494;28;21085;-67
2022/05/28 08:33:41;;;;;;;4.73;1.93;;;15.30;99.70;;;;;;5060495;28;20521;-66
2022/05/28 08:36:09;;;;;;;4.50;1.70;;;15.30;98.70;;;;;;5060392;28;20443;-66
2022/05/28 08:38:37;;;;;;;5.03;1.70;;;15.60;98.90;;;;;;5058628;28;20454;-68
2022/05/28 08:41:08;;;;;;;4.27;1.47;;;16.00;98.50;;;;;;5058548;28;21158;-68
2022/05/28 08:43:39;;;;;;;6.40;2.60;;;16.10;98.90;;;;;;5058529;28;20561;-67
2022/05/28 08:46:11;;;;;;;5.33;1.60;;;16.30;98.50;;;;;;5060646;28;20474;-67
2022/05/28 08:48:45;;;;;;;7.10;2.27;;;16.10;98.10;;;;;;5059148;28;20481;-65
2022/05/28 08:51:17;;;;;;;7.60;2.30;;;15.90;98.20;;;;;;5062259;28;20478;-67
2022/05/28 08:53:50;;;;;;;7.17;2.87;;;15.80;98.20;;;;;;5066368;28;20443;-65
2022/05/28 08:56:20;;;;;;;6.17;2.30;;;16.10;98.90;;;;;;5068688;28;20447;-68
2022/05/28 08:58:58;;;;;;;4.70;2.10;;;16.60;98.30;;;;;;5069087;28;20525;-68
2022/05/28 09:01:25;;;;;;;5.53;1.73;;;17.30;96.70;;;;;;5068178;28;20471;-68
2022/05/28 09:03:57;;;;;;;13.33;9.27;;;17.60;96.20;;;;;;5069346;28;20482;-67
2022/05/28 09:06:27;;;;;;;6.27;2.00;;;17.50;95.60;;;;;;5068593;28;20488;-67
2022/05/28 09:08:56;;;;;;;5.77;1.50;;;17.30;95.70;;;;;;5068318;28;20854;-67
2022/05/28 09:11:38;;;;;;;7.77;2.57;;;17.00;96.40;;;;;;5061855;28;21003;-67
2022/05/28 09:14:19;;;;;;;5.30;1.80;;;16.90;95.50;;;;;;5072347;28;20824;-67
2022/05/28 09:16:48;;;;;;;5.10;2.10;;;16.70;95.60;;;;;;5065733;28;20519;-66
2022/05/28 09:19:19;;;;;;;3.63;1.23;;;16.60;94.80;;;;;;5071485;28;20442;-68
2022/05/28 09:21:46;;;;;;;8.50;1.80;;;16.60;95.00;;;;;;5066992;28;20458;-67
2022/05/28 09:24:17;;;;;;;3.40;1.47;;;17.00;95.00;;;;;;5071591;28;20445;-67
2022/05/28 09:26:58;;;;;;;5.50;1.80;;;17.50;94.50;;;;;;5072672;28;20446;-67
2022/05/28 09:29:50;;;;;;;4.23;1.80;;;17.70;93.50;;;;;;5067694;28;20478;-67
2022/05/28 09:32:28;;;;;;;4.23;1.47;;;17.70;93.50;;;;;;5065249;28;20443;-67
2022/05/28 09:35:06;;;;;;;5.57;1.60;;;17.60;93.90;;;;;;5063683;28;20461;-68
2022/05/28 09:37:42;;;;;;;4.57;1.60;;;17.70;94.80;;;;;;5068353;28;20455;-67
2022/05/28 09:40:15;;;;;;;4.17;1.63;;;17.90;93.70;;;;;;5067008;28;20482;-68
2022/05/28 09:43:14;;;;;;;3.93;1.40;;;17.50;93.80;;;;;;5062806;28;20455;-65
2022/05/28 09:45:48;;;;;;;4.03;1.60;;;17.20;94.90;;;;;;5068776;28;20458;-66
2022/05/28 09:48:20;;;;;;;4.73;1.60;;;17.00;94.80;;;;;;5065011;28;20798;-66
2022/05/28 09:50:46;;;;;;;5.00;2.07;;;17.20;95.10;;;;;;5064134;28;21249;-64
2022/05/28 09:56:11;;;;;;;6.57;2.07;;;18.90;93.50;;;;;;5068015;28;20451;-66
2022/05/28 09:58:39;;;;;;;4.70;1.90;;;19.60;91.10;;;;;;5069116;28;20542;-67
2022/05/28 10:01:11;;;;;;;5.67;1.80;;;20.70;90.70;;;;;;5068750;28;20493;-65
2022/05/28 10:06:26;;;;;;;8.20;1.50;;;18.80;87.80;;;;;;5069742;28;20439;-65
2022/05/28 10:08:53;;;;;;;4.73;1.77;;;18.30;90.90;;;;;;5066772;28;20475;-64
2022/05/28 10:11:22;;;;;;;4.03;1.83;;;17.90;91.00;;;;;;5062026;28;20565;-65
2022/05/28 10:13:51;;;;;;;4.73;1.60;;;17.80;92.30;;;;;;5069560;28;20461;-64
2022/05/28 10:16:22;;;;;;;4.40;1.60;;;17.60;92.40;;;;;;5069728;28;20983;-65
2022/05/28 10:18:54;;;;;;;5.43;2.10;;;17.40;92.70;;;;;;5066108;28;20463;-64
2022/05/28 10:21:28;;;;;;;5.33;1.70;;;17.50;93.00;;;;;;5064512;28;20494;-65
2022/05/28 10:24:00;;;;;;;7.90;2.00;;;17.40;93.00;;;;;;5068148;28;20442;-65
2022/05/28 10:26:30;;;;;;;5.40;2.30;;;17.20;93.10;;;;;;5070793;28;20832;-64
2022/05/28 10:29:00;;;;;;;8.13;2.43;;;16.80;93.80;;;;;;5070694;28;20478;-64
2022/05/28 10:31:30;;;;;;;4.50;1.67;;;17.00;94.00;;;;;;5063831;28;20487;-65
2022/05/28 10:33:58;;;;;;;7.33;2.10;;;17.20;91.90;;;;;;5068402;28;20473;-66
2022/05/28 10:36:28;;;;;;;4.80;1.40;;;17.70;91.90;;;;;;5069256;28;20450;-66
2022/05/28 10:39:09;;;;;;;6.87;2.53;;;18.30;92.30;;;;;;5068229;28;21026;-75
2022/05/28 10:41:36;;;;;;;5.10;1.83;;;18.70;91.70;;;;;;5066136;28;20436;-66
2022/05/28 10:44:04;;;;;;;3.70;2.20;;;19.00;91.00;;;;;;5067159;28;20463;-65
2022/05/28 10:46:48;;;;;;;8.00;1.53;;;19.20;85.70;;;;;;5069065;28;20458;-67
2022/05/28 10:49:27;;;;;;;3.13;1.40;;;19.30;86.60;;;;;;5066926;28;21261;-66
2022/05/28 10:52:01;;;;;;;4.73;1.90;;;19.60;86.70;;;;;;5062967;28;20445;-67
2022/05/28 10:54:41;;;;;;;3.57;1.60;;;20.00;83.40;;;;;;5068816;28;20534;-66
2022/05/28 10:57:28;;;;;;;4.67;1.70;;;20.40;81.40;;;;;;5067147;28;20466;-67
2022/05/28 11:00:05;;;;;;;3.50;1.50;;;20.20;81.70;;;;;;5066100;28;20471;-65
2022/05/28 11:03:23;;;;;;;3.83;1.93;;;20.10;80.90;;;;;;5070446;28;20975;-65
2022/05/28 11:06:41;;;;;;;4.63;1.80;;;20.40;82.00;;;;;;5060297;28;20483;-70
2022/05/28 11:09:13;;;;;;;4.10;1.27;;;20.40;84.60;;;;;;5032803;28;20501;-71
2022/05/28 11:11:53;;;;;;;4.07;1.53;;;19.90;76.60;;;;;;5068416;28;20454;-67
2022/05/28 11:14:53;;;;;;;7.60;2.27;;;19.20;79.10;;;;;;5069574;28;20447;-67
2022/05/28 11:17:34;;;;;;;4.80;1.57;;;18.70;81.20;;;;;;5068493;28;20543;-67
2022/05/28 11:20:19;;;;;;;3.07;1.53;;;18.70;82.50;;;;;;5066477;28;20462;-66
2022/05/28 11:23:19;;;;;;;3.53;1.73;;;19.00;84.10;;;;;;5067401;28;20489;-66
2022/05/28 11:25:57;;;;;;;3.27;1.90;;;19.70;84.90;;;;;;5054232;28;20453;-68
2022/05/28 11:28:52;;;;;;;5.63;1.43;;;20.20;84.90;;;;;;5065295;28;20487;-68
2022/05/28 11:31:27;;;;;;;3.27;1.30;;;21.10;83.30;;;;;;5069208;28;20471;-67
2022/05/28 11:33:56;;;;;;;7.13;2.20;;;21.80;78.40;;;;;;5069604;28;20445;-67
2022/05/28 11:36:28;;;;;;;3.73;1.80;;;21.70;77.20;;;;;;5061567;28;20467;-66
2022/05/28 11:39:00;;;;;;;7.63;3.37;;;21.90;77.90;;;;;;5065608;28;20455;-68
2022/05/28 11:41:34;;;;;;;3.03;1.90;;;22.00;74.50;;;;;;5063564;28;20479;-67
2022/05/28 11:44:09;;;;;;;5.77;1.70;;;22.10;71.90;;;;;;5067458;28;20450;-65
2022/05/28 11:46:42;;;;;;;5.13;1.80;;;22.20;71.70;;;;;;5069399;28;20456;-66
2022/05/28 11:52:12;;;;;;;4.33;1.63;;;23.20;73.10;;;;;;5060503;28;20945;-67
2022/05/28 11:54:43;;;;;;;5.10;1.90;;;22.60;70.90;;;;;;5063919;28;20449;-66
2022/05/28 11:57:23;;;;;;;8.40;1.70;;;22.00;71.50;;;;;;5069860;28;21130;-66
2022/05/28 11:59:51;;;;;;;5.30;2.20;;;21.40;73.20;;;;;;5057804;28;20479;-66
2022/05/28 12:02:24;;;;;;;3.23;1.73;;;20.40;75.10;;;;;;5067091;28;20474;-67
2022/05/28 12:04:51;;;;;;;5.87;2.00;;;20.20;76.50;;;;;;5066766;28;20443;-66
2022/05/28 12:07:34;;;;;;;5.40;1.67;;;20.50;76.50;;;;;;5067476;28;20455;-66
2022/05/28 12:10:02;;;;;;;5.23;1.53;;;21.20;78.10;;;;;;5065432;28;20483;-66
2022/05/28 12:12:34;;;;;;;6.50;1.23;;;21.60;72.90;;;;;;5067293;28;20963;-65
2022/05/28 12:15:09;;;;;;;4.23;2.10;;;21.70;75.80;;;;;;5065840;28;20442;-66
2022/05/28 12:17:36;;;;;;;4.83;1.80;;;21.60;74.10;;;;;;5068695;28;20483;-66
2022/05/28 12:20:10;;;;;;;4.67;1.70;;;21.40;73.70;;;;;;5068411;28;20541;-67
2022/05/28 12:22:41;;;;;;;4.33;1.30;;;21.20;75.20;;;;;;5068868;28;20470;-65
2022/05/28 12:25:25;;;;;;;4.57;1.60;;;22.20;71.40;;;;;;5061319;28;20458;-65
2022/05/28 12:28:09;;;;;;;3.80;1.30;;;23.10;66.10;;;;;;5068107;28;20446;-66
2022/05/28 12:30:51;;;;;;;4.53;1.80;;;23.70;68.30;;;;;;5065749;28;20924;-66
2022/05/28 12:33:21;;;;;;;3.63;1.80;;;23.10;69.50;;;;;;5065979;28;20466;-66
2022/05/28 12:35:53;;;;;;;3.27;1.60;;;21.80;67.40;;;;;;5066538;28;20781;-66
2022/05/28 12:38:38;;;;;;;3.77;1.40;;;21.70;72.60;;;;;;5060372;28;20952;-66
2022/05/28 12:41:05;;;;;;;2.30;1.43;;;21.20;72.80;;;;;;5062956;28;20858;-65
2022/05/28 12:43:35;;;;;;;4.93;1.40;;;21.00;75.60;;;;;;5064220;28;20850;-66
2022/05/28 12:46:14;;;;;;;6.80;2.00;;;21.40;77.70;;;;;;5061064;28;20461;-66
2022/05/28 12:48:42;;;;;;;5.73;1.70;;;21.50;73.40;;;;;;5071615;28;20479;-66
2022/05/28 12:51:21;;;;;;;4.00;1.57;;;21.90;74.50;;;;;;5070144;28;20510;-67
2022/05/28 12:53:54;;;;;;;5.97;2.00;;;22.30;70.40;;;;;;5068402;28;20839;-68
2022/05/28 12:56:44;;;;;;;6.60;1.97;;;22.80;71.00;;;;;;5065021;28;20865;-67
2022/05/28 12:59:13;;;;;;;2.70;1.13;;;23.40;70.20;;;;;;5062220;28;20451;-67
2022/05/28 13:01:54;;;;;;;4.33;1.73;;;23.80;69.70;;;;;;5056144;28;20454;-66
2022/05/28 13:04:21;;;;;;;4.27;1.77;;;23.50;68.40;;;;;;5073318;28;20449;-65
2022/05/28 13:06:51;;;;;;;5.77;1.90;;;23.40;68.60;;;;;;5073165;28;20827;-66
2022/05/28 13:09:24;;;;;;;4.53;1.50;;;24.10;67.00;;;;;;5065602;28;20481;-66
2022/05/28 13:11:56;;;;;;;4.33;1.63;;;24.40;63.30;;;;;;5067262;28;20438;-67
2022/05/28 13:15:11;;;;;;;4.30;1.40;;;24.90;63.60;;;;;;5070290;28;20482;-67